Time;durP1;ratioP1;P1;durP2;ratioP2;P2;SDS_P1;SDS_P2;PMS_P1;PMS_P2;Temp;Humidity;BMP_temperature;BMP_pressure;BME280_temperature;BME280_humidity;BME280_pressure;Samples;Min_cycle;Max_cycle;Signal;HPM_P1;HPM_P2
2023/04/09 00:01:09;;;;;;;79.20;46.60;;;;;;;2.86;100.00;101723.17;109636;1244;57197;-68
2023/04/09 00:03:39;;;;;;;84.20;46.20;;;;;;;2.86;100.00;101721.29;109460;1247;57638;-69
2023/04/09 00:06:10;;;;;;;76.50;45.80;;;;;;;2.85;100.00;101719.77;109545;1242;72932;-69
2023/04/09 00:08:39;;;;;;;82.80;48.70;;;;;;;2.95;100.00;101725.20;109480;1243;71867;-69
2023/04/09 00:11:08;;;;;;;91.20;50.30;;;;;;;3.03;100.00;101724.66;109513;1243;70329;-70
2023/04/09 00:13:36;;;;;;;89.50;50.20;;;;;;;3.09;100.00;101722.27;109470;1243;74175;-69
2023/04/09 00:16:07;;;;;;;91.40;52.50;;;;;;;3.08;100.00;101722.98;109630;1245;58183;-70
2023/04/09 00:18:36;;;;;;;86.90;52.00;;;;;;;3.02;100.00;101727.28;109529;1246;57705;-70
2023/04/09 00:21:07;;;;;;;86.50;50.80;;;;;;;2.99;100.00;101728.55;109663;1245;62752;-69
2023/04/09 00:23:36;;;;;;;94.40;52.90;;;;;;;2.99;100.00;101729.06;109664;1244;61657;-69
2023/04/09 00:26:05;;;;;;;91.10;54.80;;;;;;;3.01;100.00;101729.70;109660;1244;70576;-68
2023/04/09 00:28:34;;;;;;;81.80;48.20;;;;;;;2.99;100.00;101728.55;109652;1243;74076;-69
2023/04/09 00:31:03;;;;;;;81.30;48.10;;;;;;;3.04;100.00;101726.70;109428;1248;57785;-68
2023/04/09 00:33:32;;;;;;;78.90;47.70;;;;;;;3.08;100.00;101728.84;109553;1247;57615;-69
2023/04/09 00:36:01;;;;;;;81.10;48.80;;;;;;;3.11;100.00;101729.27;109552;1243;63078;-69
2023/04/09 00:38:30;;;;;;;73.30;46.60;;;;;;;3.14;100.00;101726.11;109526;1243;73367;-69
2023/04/09 00:40:59;;;;;;;81.30;48.40;;;;;;;3.16;100.00;101729.15;109658;1244;60193;-69
2023/04/09 00:43:28;;;;;;;79.30;48.80;;;;;;;3.17;100.00;101728.27;109482;1243;63314;-69
2023/04/09 00:45:59;;;;;;;83.00;48.30;;;;;;;3.17;100.00;101727.39;109558;1247;57160;-69
2023/04/09 00:48:28;;;;;;;81.80;48.00;;;;;;;3.16;100.00;101725.17;109566;1243;57489;-69
2023/04/09 00:50:57;;;;;;;78.00;48.90;;;;;;;3.17;100.00;101725.35;109538;1243;62997;-69
2023/04/09 00:53:26;;;;;;;80.50;47.90;;;;;;;3.17;100.00;101727.23;109448;1244;70975;-69
2023/04/09 00:55:55;;;;;;;79.80;45.90;;;;;;;3.13;100.00;101724.25;109542;1243;69932;-68
2023/04/09 00:58:25;;;;;;;76.00;47.30;;;;;;;3.05;100.00;101726.51;109395;1247;63652;-69
2023/04/09 01:00:55;;;;;;;79.20;47.50;;;;;;;3.01;100.00;101726.11;109518;1245;58030;-69
2023/04/09 01:03:24;;;;;;;81.60;48.60;;;;;;;3.01;100.00;101725.59;109503;1244;57632;-69
2023/04/09 01:06:10;;;;;;;83.60;48.20;;;;;;;2.99;100.00;101726.84;109433;1245;62780;-68
2023/04/09 01:09:12;;;;;;;80.80;50.00;;;;;;;2.98;100.00;101727.05;109241;1244;72782;-68
2023/04/09 01:12:22;;;;;;;81.50;51.10;;;;;;;2.95;100.00;101727.27;109359;1243;71592;-69
2023/04/09 01:15:00;;;;;;;80.80;48.40;;;;;;;2.90;100.00;101722.91;109217;1244;74815;-68
2023/04/09 01:17:34;;;;;;;80.00;48.50;;;;;;;2.84;100.00;101717.55;109439;1243;62551;-69
2023/04/09 01:20:19;;;;;;;83.10;48.10;;;;;;;2.82;100.00;101713.98;109294;1245;57213;-69
2023/04/09 01:22:58;;;;;;;83.30;48.70;;;;;;;2.75;100.00;101712.45;109350;1242;62134;-68
2023/04/09 01:26:01;;;;;;;99.60;52.50;;;;;;;2.81;100.00;101712.11;109314;1245;61660;-68
2023/04/09 01:28:55;;;;;;;84.70;48.30;;;;;;;2.84;100.00;101713.77;109311;1241;70486;-68
2023/04/09 01:31:31;;;;;;;86.60;49.70;;;;;;;2.86;100.00;101714.05;109360;1241;64461;-68
2023/04/09 01:34:00;;;;;;;81.20;45.80;;;;;;;2.86;100.00;101716.64;109508;1244;62214;-68
2023/04/09 01:36:31;;;;;;;82.00;46.20;;;;;;;2.83;100.00;101712.93;109380;1241;58189;-69
2023/04/09 01:39:01;;;;;;;87.10;48.40;;;;;;;2.83;100.00;101716.89;109473;1241;62981;-69
2023/04/09 01:41:33;;;;;;;84.10;48.60;;;;;;;2.86;100.00;101717.16;109475;1241;60895;-69
2023/04/09 01:44:04;;;;;;;84.00;49.30;;;;;;;2.76;100.00;101717.73;109389;1244;70440;-69
2023/04/09 01:46:35;;;;;;;88.80;51.20;;;;;;;2.77;100.00;101715.48;109458;1241;62784;-69
2023/04/09 01:49:04;;;;;;;94.80;53.00;;;;;;;2.80;100.00;101712.83;109447;1244;62198;-68
2023/04/09 01:51:34;;;;;;;96.70;54.20;;;;;;;2.83;100.00;101715.34;109549;1241;57585;-70
2023/04/09 01:54:03;;;;;;;89.60;51.90;;;;;;;2.87;100.00;101717.66;109444;1241;73571;-68
2023/04/09 01:56:47;;;;;;;85.60;50.10;;;;;;;2.84;100.00;101711.53;109488;1241;61987;-70
2023/04/09 01:59:16;;;;;;;87.50;50.30;;;;;;;2.86;100.00;101712.36;109336;1241;69737;-68
2023/04/09 02:01:49;;;;;;;78.90;48.70;;;;;;;2.87;100.00;101710.42;109475;1242;63696;-68
2023/04/09 02:04:25;;;;;;;;;;;;;;;2.87;100.00;101708.36;109502;1245;57687;-67
2023/04/09 02:07:34;;;;;;;84.40;47.20;;;;;;;2.85;100.00;101708.75;109620;1241;57197;-68
2023/04/09 02:10:05;;;;;;;90.90;52.40;;;;;;;2.87;100.00;101709.05;109456;1241;72869;-67
2023/04/09 02:12:37;;;;;;;91.90;52.10;;;;;;;2.86;100.00;101709.24;109465;1241;70958;-68
2023/04/09 02:15:07;;;;;;;85.30;50.80;;;;;;;2.85;100.00;101708.94;109319;1241;69728;-68
2023/04/09 02:17:35;;;;;;;87.50;52.10;;;;;;;2.81;100.00;101707.65;109531;1241;74894;-68
2023/04/09 02:20:05;;;;;;;83.50;50.60;;;;;;;2.77;100.00;101706.71;109616;1245;63011;-68
2023/04/09 02:22:34;;;;;;;89.50;51.30;;;;;;;2.69;100.00;101709.98;109675;1241;61483;-68
2023/04/09 02:25:04;;;;;;;88.00;50.80;;;;;;;2.72;100.00;101709.09;109577;1241;62745;-68
2023/04/09 02:27:33;;;;;;;83.50;49.90;;;;;;;2.74;100.00;101715.23;109464;1241;72200;-68
2023/04/09 02:30:01;;;;;;;83.10;48.90;;;;;;;2.64;100.00;101715.29;109577;1241;59329;-67
2023/04/09 02:32:31;;;;;;;81.50;48.30;;;;;;;2.60;100.00;101717.09;109604;1241;63280;-68
2023/04/09 02:35:00;;;;;;;83.40;49.60;;;;;;;2.57;100.00;101716.48;109527;1245;57122;-67
2023/04/09 02:37:29;;;;;;;88.10;50.60;;;;;;;2.58;100.00;101718.86;109632;1241;57702;-69
2023/04/09 02:39:58;;;;;;;86.00;50.50;;;;;;;2.54;100.00;101718.95;109713;1241;62692;-68
2023/04/09 02:42:27;;;;;;;90.10;49.40;;;;;;;2.50;100.00;101719.38;109616;1241;60870;-69
2023/04/09 02:44:55;;;;;;;87.60;50.00;;;;;;;2.51;100.00;101722.11;109616;1241;70481;-68
2023/04/09 02:47:25;;;;;;;86.50;50.30;;;;;;;2.53;100.00;101718.46;109416;1241;73780;-69
2023/04/09 02:49:54;;;;;;;86.40;51.50;;;;;;;2.56;100.00;101720.81;109649;1244;61510;-70
2023/04/09 02:52:24;;;;;;;95.50;54.10;;;;;;;2.56;100.00;101725.44;109716;1241;57143;-70
2023/04/09 02:54:53;;;;;;;91.60;52.20;;;;;;;2.59;100.00;101727.45;109582;1241;62990;-69
2023/04/09 02:57:22;;;;;;;88.30;52.30;;;;;;;2.60;100.00;101724.14;109636;1241;70070;-69
2023/04/09 02:59:50;;;;;;;95.00;52.60;;;;;;;2.61;100.00;101726.87;109625;1241;70936;-67
2023/04/09 03:02:19;;;;;;;89.80;50.50;;;;;;;2.60;100.00;101725.00;109616;1241;74183;-70
2023/04/09 03:04:49;;;;;;;88.30;50.50;;;;;;;2.61;100.00;101727.05;109684;1241;62850;-68
2023/04/09 03:07:17;;;;;;;93.10;52.80;;;;;;;2.55;100.00;101722.55;109683;1241;61663;-69
2023/04/09 03:09:46;;;;;;;97.40;55.60;;;;;;;2.52;100.00;101724.50;109501;1241;63664;-69
2023/04/09 03:12:15;;;;;;;90.80;54.00;;;;;;;2.54;100.00;101729.77;109509;1241;60853;-67
2023/04/09 03:14:44;;;;;;;92.60;53.00;;;;;;;2.54;100.00;101730.98;109723;1241;69685;-70
2023/04/09 03:17:12;;;;;;;89.30;53.80;;;;;;;2.52;100.00;101730.88;109585;1242;74198;-68
2023/04/09 03:19:41;;;;;;;94.00;52.00;;;;;;;2.53;100.00;101733.24;109602;1245;57152;-69
2023/04/09 03:22:10;;;;;;;88.80;52.40;;;;;;;2.55;100.00;101730.45;109604;1241;57712;-68
2023/04/09 03:24:39;;;;;;;98.20;54.60;;;;;;;2.56;100.00;101732.33;109597;1241;62910;-69
2023/04/09 03:27:08;;;;;;;79.00;45.70;;;;;;;2.53;100.00;101733.77;109594;1244;71424;-68
2023/04/09 03:29:37;;;;;;;79.10;47.50;;;;;;;2.61;100.00;101732.02;109460;1243;60353;-68
2023/04/09 03:32:07;;;;;;;75.20;44.10;;;;;;;2.61;100.00;101730.83;109565;1241;72864;-68
2023/04/09 03:34:36;;;;;;;81.90;46.10;;;;;;;2.53;100.00;101732.73;109674;1241;62638;-69
2023/04/09 03:37:05;;;;;;;84.60;47.90;;;;;;;2.49;100.00;101733.17;109666;1241;57720;-69
2023/04/09 03:39:34;;;;;;;88.20;51.80;;;;;;;2.44;100.00;101736.71;109790;1244;63349;-69
2023/04/09 03:42:03;;;;;;;94.30;54.60;;;;;;;2.30;100.00;101743.73;109578;1241;61706;-68
2023/04/09 03:44:41;;;;;;;92.80;50.60;;;;;;;2.25;100.00;101742.98;109569;1246;69437;-70
2023/04/09 03:47:14;;;;;;;83.20;48.10;;;;;;;2.37;100.00;101744.78;109683;1241;73433;-70
2023/04/09 03:49:43;;;;;;;86.40;46.90;;;;;;;2.45;100.00;101750.13;109726;1242;60736;-70
2023/04/09 03:52:21;;;;;;;82.90;46.60;;;;;;;2.42;100.00;101754.81;109717;1241;61381;-69
2023/04/09 03:54:59;;;;;;;90.90;49.90;;;;;;;2.42;100.00;101754.98;109603;1241;62728;-68
2023/04/09 03:57:28;;;;;;;84.40;46.40;;;;;;;2.44;100.00;101755.98;109505;1241;61781;-69
2023/04/09 03:59:57;;;;;;;90.30;49.40;;;;;;;2.45;100.00;101757.00;109620;1241;59057;-69
2023/04/09 04:02:29;;;;;;;89.50;50.90;;;;;;;2.44;100.00;101760.29;109588;1241;73894;-68
2023/04/09 04:05:01;;;;;;;92.80;52.00;;;;;;;2.42;100.00;101759.12;109463;1245;57662;-68
2023/04/09 04:07:34;;;;;;;95.40;54.20;;;;;;;2.46;100.00;101762.64;109631;1241;61084;-68
2023/04/09 04:10:09;;;;;;;91.10;54.30;;;;;;;2.39;100.00;101765.38;109623;1241;73753;-69
2023/04/09 04:12:39;;;;;;;94.90;55.20;;;;;;;2.45;100.00;101769.20;109616;1245;62117;-68
2023/04/09 04:15:19;;;;;;;94.50;55.30;;;;;;;2.54;100.00;101770.21;109674;1241;59157;-69
2023/04/09 04:17:52;;;;;;;93.30;53.90;;;;;;;2.59;100.00;101771.81;109582;1245;63331;-68
2023/04/09 04:20:44;;;;;;;94.80;53.10;;;;;;;2.75;100.00;101770.92;109605;1245;61224;-69
2023/04/09 04:23:14;;;;;;;89.00;50.60;;;;;;;2.84;100.00;101774.17;109485;1241;57384;-70
2023/04/09 04:26:12;;;;;;;93.00;53.30;;;;;;;2.92;100.00;101772.95;109525;1245;62012;-70
2023/04/09 04:28:41;;;;;;;95.90;55.00;;;;;;;2.89;100.00;101771.98;109420;1241;70905;-70
2023/04/09 04:31:12;;;;;;;85.50;52.10;;;;;;;2.97;100.00;101772.48;109468;1245;70189;-70
2023/04/09 04:33:42;;;;;;;91.50;52.90;;;;;;;3.04;100.00;101773.35;109569;1241;73350;-70
2023/04/09 04:36:14;;;;;;;81.10;49.00;;;;;;;3.10;100.00;101774.05;109626;1245;62799;-71
2023/04/09 04:38:46;;;;;;;85.90;52.30;;;;;;;3.16;100.00;101774.61;109517;1241;57216;-68
2023/04/09 04:41:19;;;;;;;84.10;52.70;;;;;;;3.13;100.00;101780.02;109632;1242;73540;-68
2023/04/09 04:43:53;;;;;;;90.70;53.00;;;;;;;3.22;100.00;101780.66;109615;1241;71662;-69
2023/04/09 04:46:23;;;;;;;87.00;51.40;;;;;;;3.29;100.00;101784.60;109677;1241;60149;-68
2023/04/09 04:48:53;;;;;;;79.50;45.90;;;;;;;3.44;100.00;101782.49;109636;1245;73566;-68
2023/04/09 04:51:22;;;;;;;75.00;44.90;;;;;;;3.53;100.00;101780.90;109557;1245;57348;-68
2023/04/09 04:54:02;;;;;;;85.20;51.00;;;;;;;3.38;100.00;101784.55;109616;1241;62139;-70
2023/04/09 04:56:32;;;;;;;82.90;48.50;;;;;;;3.32;100.00;101786.95;109713;1241;63486;-69
2023/04/09 04:59:09;;;;;;;84.80;46.70;;;;;;;3.44;100.00;101788.02;109572;1242;70209;-69
2023/04/09 05:01:50;;;;;;;81.60;46.70;;;;;;;3.49;100.00;101787.20;109547;1245;59044;-69
2023/04/09 05:04:19;;;;;;;85.40;49.50;;;;;;;3.50;100.00;101786.67;109434;1248;63274;-71
2023/04/09 05:06:48;;;;;;;82.40;48.80;;;;;;;3.51;100.00;101787.15;109568;1245;62135;-70
2023/04/09 05:09:19;;;;;;;71.00;41.80;;;;;;;3.56;100.00;101788.05;109622;1241;57159;-71
2023/04/09 05:12:05;;;;;;;76.20;44.30;;;;;;;3.60;100.00;101789.16;109524;1241;71727;-71
2023/04/09 05:14:34;;;;;;;73.60;42.60;;;;;;;3.55;100.00;101792.91;109342;1241;72088;-69
2023/04/09 05:17:03;;;;;;;73.90;42.50;;;;;;;3.47;100.00;101793.78;109520;1241;70895;-67
2023/04/09 05:19:40;;;;;;;77.10;43.80;;;;;;;3.41;100.00;101797.20;109451;1241;72965;-68
2023/04/09 05:22:10;;;;;;;72.10;41.00;;;;;;;3.37;100.00;101795.77;109425;1245;62639;-70
2023/04/09 05:24:38;;;;;;;76.40;43.80;;;;;;;3.31;100.00;101796.63;109559;1243;60866;-70
2023/04/09 05:27:07;;;;;;;78.80;45.70;;;;;;;3.29;100.00;101797.53;109650;1243;63990;-68
2023/04/09 05:29:36;;;;;;;79.90;46.30;;;;;;;3.31;100.00;101797.13;109579;1245;69239;-68
2023/04/09 05:32:08;;;;;;;79.50;44.50;;;;;;;3.37;100.00;101800.94;109641;1244;68507;-67
2023/04/09 05:34:38;;;;;;;81.60;47.90;;;;;;;3.44;100.00;101800.95;109601;1244;72316;-69
2023/04/09 05:37:07;;;;;;;83.80;47.40;;;;;;;3.48;100.00;101803.94;109573;1245;61218;-68
2023/04/09 05:39:36;;;;;;;85.90;50.20;;;;;;;3.49;100.00;101805.30;109428;1241;57127;-69
2023/04/09 05:42:05;;;;;;;76.40;43.40;;;;;;;3.76;100.00;101807.52;109607;1241;74178;-70
2023/04/09 05:44:38;;;;;;;82.90;49.90;;;;;;;3.90;100.00;101803.36;109501;1245;62027;-69
2023/04/09 05:47:11;;;;;;;86.80;52.60;;;;;;;4.00;100.00;101800.48;109616;1245;59995;-72
2023/04/09 05:49:57;;;;;;;89.70;51.90;;;;;;;4.17;100.00;101802.92;109669;1242;73800;-68
2023/04/09 05:52:27;;;;;;;70.80;44.40;;;;;;;4.42;100.00;101803.94;109507;1245;58064;-68
2023/04/09 05:54:56;;;;;;;79.50;48.00;;;;;;;4.61;100.00;101801.46;109643;1244;57756;-70
2023/04/09 05:57:31;;;;;;;64.90;39.20;;;;;;;4.64;100.00;101800.00;109533;1241;73922;-69
2023/04/09 06:00:02;;;;;;;77.00;47.20;;;;;;;4.60;100.00;101802.71;109460;1241;71162;-72
2023/04/09 06:02:44;;;;;;;75.20;43.20;;;;;;;4.56;100.00;101803.19;109712;1241;70304;-70
2023/04/09 06:05:13;;;;;;;71.90;42.70;;;;;;;4.62;100.00;101805.25;109619;1245;63597;-67
2023/04/09 06:07:42;;;;;;;67.70;41.80;;;;;;;4.70;100.00;101806.04;109528;1244;57152;-68
2023/04/09 06:10:11;;;;;;;71.10;40.80;;;;;;;4.77;100.00;101805.11;109510;1244;60125;-66
2023/04/09 06:12:40;;;;;;;72.60;42.80;;;;;;;4.86;100.00;101804.70;109405;1241;73142;-72
2023/04/09 06:15:10;;;;;;;74.10;43.30;;;;;;;4.84;100.00;101796.14;109393;1248;62050;-73
2023/04/09 06:17:39;;;;;;;69.60;42.80;;;;;;;4.90;100.00;101806.80;109479;1247;59242;-75
2023/04/09 06:20:08;;;;;;;76.60;47.00;;;;;;;4.87;100.00;101809.66;109646;1241;73878;-71
2023/04/09 06:22:37;;;;;;;73.70;44.50;;;;;;;4.93;100.00;101808.27;109624;1245;57164;-74
2023/04/09 06:25:06;;;;;;;69.50;40.90;;;;;;;5.05;100.00;101810.33;109654;1244;57129;-71
2023/04/09 06:27:35;;;;;;;68.50;43.60;;;;;;;5.11;100.00;101811.52;109687;1245;62149;-73
2023/04/09 06:30:05;;;;;;;73.20;45.10;;;;;;;5.17;100.00;101811.84;109673;1245;61525;-70
2023/04/09 06:32:34;;;;;;;70.00;41.70;;;;;;;5.22;100.00;101812.86;109410;1248;59230;-69
2023/04/09 06:35:18;;;;;;;72.90;44.00;;;;;;;5.29;100.00;101814.19;109610;1245;62470;-70
2023/04/09 06:37:47;;;;;;;69.90;42.50;;;;;;;5.28;100.00;101813.71;109552;1245;57608;-70
2023/04/09 06:40:16;;;;;;;69.50;42.20;;;;;;;5.23;100.00;101812.14;109436;1241;60760;-69
2023/04/09 06:42:45;;;;;;;70.30;42.40;;;;;;;5.23;100.00;101811.29;109463;1243;73937;-69
2023/04/09 06:45:21;;;;;;;69.50;41.80;;;;;;;5.27;100.00;101811.14;109454;1245;62113;-68
2023/04/09 06:47:50;;;;;;;61.50;37.70;;;;;;;5.37;100.00;101813.92;109321;1246;59962;-68
2023/04/09 06:50:19;;;;;;;56.40;32.80;;;;;;;5.32;100.00;101815.48;109293;1246;73926;-70
2023/04/09 06:52:48;;;;;;;61.30;35.90;;;;;;;5.24;100.00;101814.88;109445;1245;57663;-69
2023/04/09 06:55:17;;;;;;;66.00;39.30;;;;;;;5.21;100.00;101813.05;109370;1244;60542;-70
2023/04/09 06:57:46;;;;;;;63.00;36.40;;;;;;;5.22;100.00;101812.35;109467;1245;72320;-69
2023/04/09 07:00:15;;;;;;;65.40;39.50;;;;;;;5.31;100.00;101805.65;109537;1241;71950;-68
2023/04/09 07:02:44;;;;;;;63.00;37.00;;;;;;;5.37;100.00;101806.16;109546;1242;70959;-68
2023/04/09 07:05:13;;;;;;;53.60;31.80;;;;;;;5.50;100.00;101811.06;109424;1245;72660;-69
2023/04/09 07:07:42;;;;;;;57.30;36.00;;;;;;;5.58;100.00;101808.89;109488;1244;63100;-67
2023/04/09 07:10:10;;;;;;;50.40;31.20;;;;;;;5.77;100.00;101808.76;109496;1245;61628;-68
2023/04/09 07:12:39;;;;;;;59.30;35.40;;;;;;;5.83;100.00;101806.83;109460;1245;62767;-68
2023/04/09 07:15:08;;;;;;;44.00;24.40;;;;;;;5.96;100.00;101803.80;109605;1244;61589;-66
2023/04/09 07:17:37;;;;;;;59.50;33.40;;;;;;;6.00;99.94;101803.81;109618;1242;70470;-68
2023/04/09 07:20:06;;;;;;;50.90;29.60;;;;;;;6.01;99.93;101803.44;109630;1243;74218;-68
2023/04/09 07:22:35;;;;;;;55.60;31.70;;;;;;;6.04;99.93;101807.13;109502;1247;57173;-68
2023/04/09 07:25:05;;;;;;;50.50;29.00;;;;;;;6.13;99.73;101805.60;109676;1244;57406;-69
2023/04/09 07:27:34;;;;;;;63.20;35.80;;;;;;;6.21;99.25;101808.63;109657;1243;73556;-69
2023/04/09 07:30:04;;;;;;;61.60;33.90;;;;;;;6.23;99.03;101808.01;109686;1245;61974;-69
2023/04/09 07:32:32;;;;;;;58.00;35.20;;;;;;;6.29;98.38;101804.49;109699;1243;69678;-69
2023/04/09 07:35:06;;;;;;;58.60;31.70;;;;;;;6.30;98.25;101804.48;109655;1245;63743;-69
2023/04/09 07:37:35;;;;;;;64.70;40.70;;;;;;;6.39;97.96;101804.81;109395;1245;62152;-69
2023/04/09 07:40:04;;;;;;;52.50;30.10;;;;;;;6.43;98.38;101802.25;109661;1241;61742;-69
2023/04/09 07:42:36;;;;;;;51.30;29.60;;;;;;;6.57;97.74;101807.27;109638;1242;64448;-70
2023/04/09 07:45:06;;;;;;;46.00;28.10;;;;;;;6.65;97.08;101808.33;109504;1245;71177;-68
2023/04/09 07:47:35;;;;;;;49.30;29.50;;;;;;;6.76;96.98;101809.64;109528;1245;60477;-70
2023/04/09 07:50:05;;;;;;;60.10;37.00;;;;;;;6.90;96.50;101814.28;109581;1245;62501;-69
2023/04/09 07:52:34;;;;;;;63.40;39.40;;;;;;;7.11;96.02;101817.77;109340;1249;57745;-70
2023/04/09 07:55:03;;;;;;;62.40;37.30;;;;;;;7.34;93.87;101816.84;109508;1244;57238;-70
2023/04/09 07:57:32;;;;;;;55.40;33.20;;;;;;;7.44;93.38;101818.34;109553;1245;62719;-70
2023/04/09 08:00:02;;;;;;;56.20;36.10;;;;;;;7.50;92.83;101821.20;109584;1245;60864;-69
2023/04/09 08:02:40;;;;;;;52.80;29.80;;;;;;;7.51;93.75;101819.06;109578;1242;69281;-70
2023/04/09 08:05:09;;;;;;;57.50;35.60;;;;;;;7.76;92.32;101825.30;109537;1243;63092;-69
2023/04/09 08:07:38;;;;;;;54.70;33.60;;;;;;;7.89;91.31;101822.98;109598;1241;57925;-70
2023/04/09 08:10:12;;;;;;;58.80;35.40;;;;;;;7.97;90.82;101819.20;109612;1244;57410;-69
2023/04/09 08:12:41;;;;;;;48.70;29.00;;;;;;;8.09;89.92;101817.44;109633;1246;62452;-69
2023/04/09 08:15:10;;;;;;;65.00;40.00;;;;;;;8.14;89.58;101820.00;109479;1245;62051;-68
2023/04/09 08:17:39;;;;;;;42.90;26.90;;;;;;;8.21;90.05;101819.35;109626;1244;59090;-69
2023/04/09 08:20:09;;;;;;;55.40;34.20;;;;;;;8.38;88.47;101817.05;109419;1247;62680;-69
2023/04/09 08:22:39;;;;;;;58.60;37.90;;;;;;;8.48;88.51;101816.39;109551;1245;59440;-69
2023/04/09 08:25:08;;;;;;;57.10;36.30;;;;;;;8.63;88.28;101815.34;109649;1241;57797;-70
2023/04/09 08:27:38;;;;;;;54.90;35.40;;;;;;;8.84;87.70;101811.40;109533;1244;62222;-68
2023/04/09 08:30:08;;;;;;;52.90;35.40;;;;;;;8.90;86.62;101810.10;109573;1241;61809;-68
2023/04/09 08:32:37;;;;;;;50.30;34.20;;;;;;;9.08;87.51;101809.22;109561;1241;69680;-69
2023/04/09 08:35:06;;;;;;;49.90;35.20;;;;;;;9.31;85.59;101812.77;109550;1245;74105;-69
2023/04/09 08:37:35;;;;;;;55.40;36.90;;;;;;;9.68;84.79;101808.65;109462;1241;62000;-70
2023/04/09 08:40:04;;;;;;;53.80;35.70;;;;;;;9.79;84.68;101805.64;109502;1245;61065;-69
2023/04/09 08:42:36;;;;;;;53.20;36.90;;;;;;;9.94;83.61;101806.08;109539;1244;63744;-68
2023/04/09 08:45:05;;;;;;;50.80;35.30;;;;;;;10.08;84.31;101805.88;109608;1243;72143;-70
2023/04/09 08:47:35;;;;;;;51.70;35.10;;;;;;;10.03;80.93;101801.98;109624;1241;60675;-69
2023/04/09 08:50:05;;;;;;;53.90;37.30;;;;;;;10.28;82.15;101802.76;109521;1245;63244;-69
2023/04/09 08:52:35;;;;;;;45.70;34.10;;;;;;;10.36;80.70;101802.48;109411;1241;59189;-70
2023/04/09 08:55:04;;;;;;;44.50;33.60;;;;;;;10.43;80.88;101800.57;109552;1241;62393;-70
2023/04/09 08:57:38;;;;;;;43.80;32.30;;;;;;;10.56;80.76;101800.16;109631;1241;73338;-69
2023/04/09 09:00:08;;;;;;;44.00;32.30;;;;;;;10.55;79.27;101796.92;109469;1241;61799;-69
2023/04/09 09:02:38;;;;;;;46.40;32.80;;;;;;;10.69;77.87;101791.46;109630;1244;70393;-70
2023/04/09 09:05:07;;;;;;;42.60;31.30;;;;;;;10.78;78.32;101781.55;109490;1245;63601;-69
2023/04/09 09:07:52;;;;;;;43.90;31.90;;;;;;;10.89;77.44;101783.02;109490;1245;57772;-69
2023/04/09 09:10:40;;;;;;;45.70;32.30;;;;;;;10.98;76.67;101791.44;108914;1244;360215;-71
2023/04/09 09:13:26;;;;;;;49.70;33.20;;;;;;;10.87;75.90;101787.69;109220;1244;73555;-69
2023/04/09 09:16:12;;;;;;;44.70;31.30;;;;;;;10.77;74.79;101786.34;109233;1241;72574;-69
2023/04/09 09:18:43;;;;;;;45.20;31.50;;;;;;;10.66;74.98;101783.59;109363;1244;70937;-69
2023/04/09 09:21:13;;;;;;;46.10;33.10;;;;;;;10.62;75.84;101783.67;109318;1245;74141;-68
2023/04/09 09:23:43;;;;;;;40.80;28.40;;;;;;;10.65;75.42;101782.24;109192;1245;58100;-69
2023/04/09 09:26:15;;;;;;;40.40;29.50;;;;;;;10.76;73.37;101781.14;109236;1241;60920;-69
2023/04/09 09:28:45;;;;;;;41.50;29.60;;;;;;;10.92;73.15;101778.99;109259;1245;73125;-72
2023/04/09 09:31:16;;;;;;;40.90;28.80;;;;;;;11.01;73.32;101780.09;109228;1242;62474;-70
2023/04/09 09:33:47;;;;;;;41.70;29.60;;;;;;;11.03;72.84;101781.00;109453;1241;59156;-68
2023/04/09 09:36:30;;;;;;;47.30;30.30;;;;;;;11.35;72.51;101778.12;109329;1244;73793;-69
2023/04/09 09:39:08;;;;;;;39.20;27.50;;;;;;;11.46;71.75;101775.71;109297;1245;57695;-68
2023/04/09 09:41:39;;;;;;;34.30;24.20;;;;;;;11.33;71.69;101772.66;109468;1244;61672;-69
2023/04/09 09:44:10;;;;;;;39.60;27.50;;;;;;;11.69;70.76;101770.48;109419;1241;62803;-68
2023/04/09 09:46:41;;;;;;;41.10;29.10;;;;;;;11.90;70.11;101766.63;109509;1241;62221;-69
2023/04/09 09:49:10;;;;;;;35.40;26.50;;;;;;;12.14;69.63;101767.77;109448;1245;69958;-68
2023/04/09 09:51:40;;;;;;;35.30;26.40;;;;;;;12.21;68.22;101768.75;109521;1244;74752;-69
2023/04/09 09:54:11;;;;;;;34.10;25.20;;;;;;;12.13;68.69;101773.06;109241;1245;61128;-69
2023/04/09 09:56:42;;;;;;;32.40;23.80;;;;;;;12.09;68.23;101770.71;109370;1244;57219;-73
2023/04/09 09:59:22;;;;;;;33.10;23.30;;;;;;;11.96;67.81;101768.88;109183;1241;62179;-70
2023/04/09 10:02:01;;;;;;;36.10;25.00;;;;;;;12.17;67.22;101767.92;109207;1241;61608;-71
2023/04/09 10:04:36;;;;;;;30.50;23.40;;;;;;;12.26;61.77;101765.80;109260;1244;70838;-74
2023/04/09 10:07:07;;;;;;;34.70;25.70;;;;;;;12.22;58.03;101769.55;109304;1244;74509;-71
2023/04/09 10:09:42;;;;;;;35.00;25.60;;;;;;;12.11;58.70;101767.27;109392;1241;61332;-72
2023/04/09 10:12:11;;;;;;;33.10;25.40;;;;;;;12.37;59.35;101761.92;109263;1243;60930;-71
2023/04/09 10:14:41;;;;;;;31.10;24.30;;;;;;;12.53;58.00;101757.66;109382;1241;73625;-72
2023/04/09 10:17:10;;;;;;;30.50;22.50;;;;;;;12.64;58.00;101755.86;109409;1241;61235;-71
2023/04/09 10:19:48;;;;;;;32.30;25.00;;;;;;;12.54;56.48;101754.39;109240;1241;60067;-73
2023/04/09 10:22:22;;;;;;;31.60;21.90;;;;;;;12.65;57.01;101755.77;109388;1241;72677;-72
2023/04/09 10:24:51;;;;;;;31.20;22.30;;;;;;;13.03;56.15;101754.35;109263;1241;57075;-73
2023/04/09 10:27:21;;;;;;;28.30;21.40;;;;;;;13.29;55.40;101754.77;109381;1243;57740;-72
2023/04/09 10:29:51;;;;;;;32.00;22.60;;;;;;;13.39;53.98;101738.84;109494;1241;72708;-72
2023/04/09 10:32:25;;;;;;;29.30;21.70;;;;;;;13.76;55.31;101746.64;109453;1241;72574;-71
2023/04/09 10:35:00;;;;;;;25.10;19.70;;;;;;;13.89;52.87;101741.52;109300;1245;60518;-73
2023/04/09 10:37:29;;;;;;;27.70;21.50;;;;;;;13.97;51.67;101731.02;109312;1244;62747;-71
2023/04/09 10:39:58;;;;;;;22.90;19.30;;;;;;;14.38;52.77;101743.69;109297;1244;57677;-72
2023/04/09 10:42:39;;;;;;;30.70;22.10;;;;;;;14.71;52.07;101739.68;109503;1244;57155;-72
2023/04/09 10:45:13;;;;;;;28.20;22.20;;;;;;;14.52;51.35;101731.45;109320;1244;71729;-71
2023/04/09 10:47:44;;;;;;;24.70;19.60;;;;;;;14.89;50.52;101728.92;109452;1244;62180;-70
2023/04/09 10:50:17;;;;;;;27.00;21.40;;;;;;;15.22;50.59;101733.41;109335;1244;69674;-70
2023/04/09 10:52:51;;;;;;;27.70;22.20;;;;;;;14.97;50.38;101725.70;109532;1242;63599;-70
2023/04/09 10:55:38;;;;;;;27.30;22.40;;;;;;;15.00;50.87;101723.52;109482;1241;61323;-71
2023/04/09 10:58:09;;;;;;;26.70;21.30;;;;;;;14.44;49.69;101719.17;109308;1244;60926;-70
2023/04/09 11:00:46;;;;;;;25.10;20.00;;;;;;;14.75;50.67;101717.66;109467;1243;63437;-69
2023/04/09 11:03:31;;;;;;;26.40;21.60;;;;;;;15.11;50.13;101715.65;109260;1241;63604;-70
2023/04/09 11:06:10;;;;;;;24.70;20.70;;;;;;;15.21;48.84;101715.45;109221;1241;58851;-70
2023/04/09 11:08:41;;;;;;;24.80;21.30;;;;;;;15.07;48.37;101711.91;109250;1243;63054;-70
2023/04/09 11:11:11;;;;;;;26.20;21.10;;;;;;;15.02;48.07;101702.69;109428;1242;60661;-72
2023/04/09 11:13:40;;;;;;;27.00;19.80;;;;;;;14.99;49.18;101706.88;109437;1242;61715;-71
2023/04/09 11:16:11;;;;;;;22.50;18.90;;;;;;;15.22;47.24;101707.64;109401;1243;62767;-71
2023/04/09 11:18:52;;;;;;;26.20;21.10;;;;;;;15.35;47.25;101704.36;109580;1243;60903;-70
2023/04/09 11:21:26;;;;;;;24.00;19.60;;;;;;;15.39;48.09;101702.80;109574;1243;59971;-70
2023/04/09 11:23:55;;;;;;;23.10;19.40;;;;;;;15.44;47.67;101698.96;109420;1243;63386;-70